Portada
METAR-TAF:

METAR-TAF

Aeropuertos :

Trollhättan-Vänersborg, Suecia

latitud: 58-19N, longitud: 012-21E, altitud: 41 m

Observación

El informe se hizo hace 30 minutos, a las 14:50 UTC
Viento 8 kt del sur-suroeste, variando entre sur y suroeste
Temperatura 25°C
Humedad 50%
Presión 1022 hPa
Visibilidad 10 km o más

METAR: ESGT 061450Z AUTO 20008KT 170V230 9999 R15/P2000N R33///// SCT120/// 25/14 Q1022

Hora: 17:20 (15:20 UTC)


TAF: falta

Observaciones y pronósticos meteorológicos de más de 4000 aeropuertos (mensajes METAR y TAF).

Los puntos amarillos y rojos representan las estaciones disponibles.

Ponga el ratón en el punto deseado para ver el nombre de la estación.

Haga clic para ver las observaciones y los pronósticos meteorológicos.

Para cambiar el mapa : haga clic en los botones verdes con una cruz de color negro para hacer un zoom, en el botón verde con un guión para alejar o en las flechas verdes para mapas adyacentes.


METAR-TAF: